createdAt,value
2023-04-23T00:02:50.316Z,6.94
2023-04-23T00:07:41.033Z,6.98
2023-04-23T00:12:32.942Z,6.99
2023-04-23T00:17:25.861Z,6.86
2023-04-23T00:22:17.314Z,6.89
2023-04-23T00:27:07.331Z,6.74
2023-04-23T00:31:58.406Z,6.88
2023-04-23T00:36:55.190Z,6.88
2023-04-23T00:41:45.499Z,6.86
2023-04-23T00:46:35.819Z,6.78
2023-04-23T00:51:26.228Z,6.92
2023-04-23T00:56:20.658Z,6.94
2023-04-23T01:01:10.810Z,6.98
2023-04-23T01:06:01.385Z,7.03
2023-04-23T01:10:52.651Z,7.09
2023-04-23T01:15:47.204Z,7.08
2023-04-23T01:20:42.423Z,7.16
2023-04-23T01:25:35.301Z,7.17
2023-04-23T01:30:28.156Z,7.16
2023-04-23T01:35:21.001Z,7.24
2023-04-23T01:40:14.583Z,7.27
2023-04-23T01:45:08.263Z,7.19
2023-04-23T01:49:59.249Z,7.36
2023-04-23T01:54:49.390Z,7.38
2023-04-23T01:59:40.599Z,7.31
2023-04-23T02:04:33.531Z,7.24
2023-04-23T02:09:23.336Z,7.20
2023-04-23T02:14:14.215Z,7.25
2023-04-23T02:19:04.747Z,7.27
2023-04-23T02:23:57.698Z,7.24
2023-04-23T02:28:49.717Z,7.20
2023-04-23T02:33:39.778Z,7.10
2023-04-23T02:38:29.645Z,7.07
2023-04-23T02:43:22.058Z,6.99
2023-04-23T02:48:11.876Z,6.98
2023-04-23T02:53:01.732Z,6.99
2023-04-23T02:57:52.018Z,7.02
2023-04-23T03:02:44.902Z,6.97
2023-04-23T03:07:36.554Z,6.98
2023-04-23T03:12:27.268Z,7.00
2023-04-23T03:17:17.202Z,6.87
2023-04-23T03:22:09.702Z,6.96
2023-04-23T03:27:00.964Z,6.90
2023-04-23T03:31:50.796Z,6.89
2023-04-23T03:36:41.006Z,6.87
2023-04-23T03:41:33.756Z,6.75
2023-04-23T03:46:24.883Z,6.75
2023-04-23T03:51:16.277Z,6.80
2023-04-23T03:56:10.913Z,6.64
2023-04-23T04:01:13.069Z,7.46
2023-04-23T04:06:02.817Z,7.46
2023-04-23T04:10:52.518Z,7.47
2023-04-23T04:15:43.269Z,7.46
2023-04-23T04:20:36.062Z,7.44
2023-04-23T04:25:28.624Z,7.43
2023-04-23T04:30:18.875Z,7.38
2023-04-23T04:35:09.121Z,7.35
2023-04-23T04:40:01.592Z,7.41
2023-04-23T04:44:51.824Z,7.42
2023-04-23T04:49:41.422Z,7.31
2023-04-23T04:54:33.329Z,7.38
2023-04-23T04:59:26.740Z,7.44
2023-04-23T05:04:16.441Z,7.51
2023-04-23T05:09:06.677Z,7.72
2023-04-23T05:13:56.322Z,7.78
2023-04-23T05:18:48.512Z,7.83
2023-04-23T05:23:38.652Z,7.81
2023-04-23T05:28:28.393Z,7.80
2023-04-23T05:33:18.006Z,7.86
2023-04-23T05:38:15.040Z,7.88
2023-04-23T05:43:04.721Z,7.92
2023-04-23T05:47:54.847Z,7.96
2023-04-23T05:52:46.135Z,8.01
2023-04-23T05:57:38.922Z,8.03
2023-04-23T06:02:29.124Z,8.13
2023-04-23T06:07:21.581Z,8.24
2023-04-23T06:12:12.923Z,8.33
2023-04-23T06:17:06.645Z,8.38
2023-04-23T06:21:56.607Z,8.51
2023-04-23T06:26:46.409Z,8.54
2023-04-23T06:31:41.813Z,8.66
2023-04-23T06:36:34.187Z,8.68
2023-04-23T06:41:25.174Z,8.82
2023-04-23T06:46:31.294Z,9.01
2023-04-23T06:51:21.619Z,8.88
2023-04-23T06:56:14.184Z,9.22
2023-04-23T07:01:08.343Z,9.37
2023-04-23T07:06:03.669Z,9.49
2023-04-23T07:10:53.561Z,9.69
2023-04-23T07:15:46.691Z,9.78
2023-04-23T07:20:36.346Z,9.80
2023-04-23T07:25:26.485Z,9.90
2023-04-23T07:30:17.465Z,10.05
2023-04-23T07:35:11.651Z,10.14
2023-04-23T07:40:05.674Z,10.21
2023-04-23T07:44:57.392Z,10.09
2023-04-23T07:49:47.137Z,10.44
2023-04-23T07:54:39.408Z,10.63
2023-04-23T07:59:30.199Z,10.55
2023-04-23T08:04:21.159Z,10.64
2023-04-23T08:09:11.127Z,11.01
2023-04-23T08:14:03.751Z,11.68
2023-04-23T08:19:04.918Z,12.41
2023-04-23T08:23:55.807Z,12.90
2023-04-23T08:28:45.384Z,13.49
2023-04-23T08:33:37.504Z,13.89
2023-04-23T08:38:27.104Z,14.46
2023-04-23T08:43:19.319Z,14.93
2023-04-23T08:48:09.453Z,15.17
2023-04-23T08:53:02.032Z,15.07
2023-04-23T08:57:52.551Z,15.06
2023-04-23T09:02:43.710Z,15.32
2023-04-23T09:07:33.495Z,15.49
2023-04-23T09:12:26.067Z,15.75
2023-04-23T09:17:15.752Z,15.96
2023-04-23T09:22:05.613Z,16.11
2023-04-23T09:26:55.893Z,16.28
2023-04-23T09:31:49.635Z,16.20
2023-04-23T09:36:40.507Z,16.25
2023-04-23T09:41:31.905Z,16.39
2023-04-23T09:46:21.716Z,16.59
2023-04-23T09:51:16.689Z,16.65
2023-04-23T09:56:06.403Z,16.46
2023-04-23T10:00:56.956Z,16.18
2023-04-23T10:06:00.539Z,16.02
2023-04-23T10:11:00.161Z,16.14
2023-04-23T10:16:18.184Z,16.27
2023-04-23T10:21:12.735Z,16.20
2023-04-23T10:26:06.412Z,16.10
2023-04-23T10:30:57.369Z,16.09
2023-04-23T10:35:48.784Z,15.94
2023-04-23T10:40:41.174Z,15.76
2023-04-23T10:45:33.773Z,15.93
2023-04-23T10:50:27.496Z,15.65
2023-04-23T10:55:21.004Z,15.62
2023-04-23T11:00:12.930Z,15.51
2023-04-23T11:05:07.461Z,15.44
2023-04-23T11:09:57.911Z,15.26
2023-04-23T11:14:51.496Z,15.33
2023-04-23T11:19:42.019Z,15.51
2023-04-23T11:24:37.491Z,15.51
2023-04-23T11:29:28.107Z,15.57
2023-04-23T11:34:17.874Z,15.73
2023-04-23T11:39:08.673Z,15.87
2023-04-23T11:44:01.417Z,15.95
2023-04-23T11:48:51.971Z,16.02
2023-04-23T11:53:47.939Z,16.07
2023-04-23T11:58:39.271Z,16.12
2023-04-23T12:03:32.188Z,16.19
2023-04-23T12:08:23.472Z,16.04
2023-04-23T12:13:16.512Z,16.08
2023-04-23T12:18:12.846Z,15.27
2023-04-23T12:23:13.346Z,17.99
2023-04-23T12:28:05.647Z,18.29
2023-04-23T12:32:55.299Z,18.34
2023-04-23T12:37:45.594Z,18.30
2023-04-23T12:42:40.977Z,17.96
2023-04-23T12:47:30.593Z,18.36
2023-04-23T12:52:20.167Z,18.69
2023-04-23T12:57:10.578Z,12.83
2023-04-23T13:02:03.942Z,12.00
2023-04-23T13:06:54.804Z,11.75
2023-04-23T13:11:44.455Z,11.32
2023-04-23T13:16:45.126Z,11.21
2023-04-23T13:21:39.701Z,11.32
2023-04-23T13:26:37.357Z,11.41
2023-04-23T13:31:31.598Z,11.53
2023-04-23T13:36:33.452Z,11.34
2023-04-23T13:41:30.520Z,11.29
2023-04-23T13:46:20.409Z,11.29
2023-04-23T13:51:21.454Z,11.26
2023-04-23T13:56:16.070Z,11.26
2023-04-23T14:01:48.096Z,11.18
2023-04-23T14:07:01.442Z,10.88
2023-04-23T14:12:01.894Z,10.89
2023-04-23T14:16:59.562Z,10.99
2023-04-23T14:21:54.591Z,10.86
2023-04-23T14:26:50.024Z,10.70
2023-04-23T14:31:42.523Z,10.60
2023-04-23T14:36:37.459Z,10.60
2023-04-23T14:41:30.722Z,10.55
2023-04-23T14:46:23.610Z,10.52
2023-04-23T14:51:21.305Z,10.14
2023-04-23T14:56:13.604Z,10.17
2023-04-23T15:01:05.682Z,10.23
2023-04-23T15:05:59.084Z,10.17
2023-04-23T15:10:50.727Z,10.08
2023-04-23T15:15:46.574Z,9.95
2023-04-23T15:20:37.995Z,10.08
2023-04-23T15:25:28.851Z,10.05
2023-04-23T15:30:23.517Z,10.15
2023-04-23T15:35:17.253Z,10.11
2023-04-23T15:40:07.367Z,10.12
2023-04-23T15:44:57.497Z,10.02
2023-04-23T15:49:54.429Z,9.94
2023-04-23T15:54:49.735Z,9.87
2023-04-23T15:59:40.829Z,10.02
2023-04-23T16:04:31.833Z,10.11
2023-04-23T16:09:21.820Z,10.24
2023-04-23T16:14:15.240Z,10.14
2023-04-23T16:19:05.020Z,10.13
2023-04-23T16:23:54.730Z,10.13
2023-04-23T16:28:44.610Z,9.94
2023-04-23T16:33:37.049Z,9.71
2023-04-23T16:38:26.796Z,9.94
2023-04-23T16:43:16.646Z,10.07
2023-04-23T16:48:06.812Z,10.01
2023-04-23T16:52:59.398Z,9.91
2023-04-23T16:57:49.020Z,9.97
2023-04-23T17:02:39.461Z,9.89
2023-04-23T17:07:29.183Z,9.88
2023-04-23T17:12:23.399Z,9.87
2023-04-23T17:17:13.105Z,9.78
2023-04-23T17:22:02.772Z,9.92
2023-04-23T17:26:53.200Z,9.77
2023-04-23T17:31:45.458Z,9.80
2023-04-23T17:36:37.677Z,9.81
2023-04-23T17:41:27.392Z,9.76
2023-04-23T17:46:17.202Z,9.84
2023-04-23T17:51:09.524Z,9.63
2023-04-23T17:56:03.137Z,9.66
2023-04-23T18:00:53.208Z,9.54
2023-04-23T18:05:45.207Z,9.64
2023-04-23T18:10:37.471Z,9.61
2023-04-23T18:15:29.113Z,9.25
2023-04-23T18:20:19.108Z,9.52
2023-04-23T18:25:10.179Z,9.56
2023-04-23T18:30:02.429Z,9.39
2023-04-23T18:34:51.976Z,9.35
2023-04-23T18:39:42.042Z,9.35
2023-04-23T18:44:32.606Z,9.08
2023-04-23T18:49:41.208Z,8.99
2023-04-23T18:54:31.015Z,9.09
2023-04-23T18:59:21.708Z,9.13
2023-04-23T19:04:11.451Z,9.12
2023-04-23T19:09:06.609Z,9.24
2023-04-23T19:13:56.167Z,9.10
2023-04-23T19:18:46.103Z,9.10
2023-04-23T19:23:36.010Z,8.74
2023-04-23T19:28:28.567Z,8.42
2023-04-23T19:33:20.484Z,8.20
2023-04-23T19:38:10.457Z,8.10
2023-04-23T19:43:00.495Z,8.02
2023-04-23T19:47:52.813Z,7.92
2023-04-23T19:52:44.289Z,7.86
2023-04-23T19:57:33.959Z,7.90
2023-04-23T20:02:23.922Z,7.92
2023-04-23T20:07:17.628Z,7.92
2023-04-23T20:12:07.730Z,7.89
2023-04-23T20:16:58.717Z,7.82
2023-04-23T20:21:50.773Z,7.78
2023-04-23T20:26:43.707Z,7.85
2023-04-23T20:31:34.507Z,7.76
2023-04-23T20:36:29.264Z,7.79
2023-04-23T20:41:18.942Z,7.68
2023-04-23T20:46:12.013Z,7.69
2023-04-23T20:51:02.629Z,7.63
2023-04-23T20:55:52.258Z,7.50
2023-04-23T21:00:41.787Z,7.44
2023-04-23T21:05:35.070Z,7.41
2023-04-23T21:10:24.631Z,7.55
2023-04-23T21:15:16.180Z,7.64
2023-04-23T21:20:05.838Z,7.65
2023-04-23T21:24:58.068Z,7.53
2023-04-23T21:29:48.530Z,7.32
2023-04-23T21:34:39.362Z,7.32
2023-04-23T21:39:28.997Z,7.16
2023-04-23T21:44:21.861Z,7.12
2023-04-23T21:49:11.799Z,7.11
2023-04-23T21:54:01.377Z,7.11
2023-04-23T21:58:51.001Z,6.93
2023-04-23T22:03:47.006Z,6.82
2023-04-23T22:08:38.164Z,6.78
2023-04-23T22:13:28.118Z,6.96
2023-04-23T22:18:17.818Z,7.05
2023-04-23T22:23:10.307Z,6.88
2023-04-23T22:28:00.040Z,6.60
2023-04-23T22:32:51.997Z,6.50
2023-04-23T22:37:41.604Z,6.51
2023-04-23T22:42:34.101Z,6.59
2023-04-23T22:47:24.038Z,6.56
2023-04-23T22:52:14.543Z,6.45
2023-04-23T22:57:04.180Z,6.43
2023-04-23T23:01:57.968Z,6.33
2023-04-23T23:06:50.017Z,6.40
2023-04-23T23:11:39.732Z,6.44
2023-04-23T23:16:30.730Z,6.37
2023-04-23T23:21:22.956Z,6.42
2023-04-23T23:26:12.477Z,6.24
2023-04-23T23:31:02.135Z,6.29
2023-04-23T23:35:51.697Z,6.20
2023-04-23T23:40:44.439Z,6.34
2023-04-23T23:45:34.524Z,6.48
2023-04-23T23:50:24.374Z,6.42
2023-04-23T23:55:14.181Z,6.32
